createdAt,value
2017-10-18T00:02:13.256Z,14.45
2017-10-18T00:04:42.494Z,14.45
2017-10-18T00:07:11.708Z,14.45
2017-10-18T00:09:40.972Z,14.43
2017-10-18T00:12:10.184Z,14.38
2017-10-18T00:14:40.176Z,14.41
2017-10-18T00:17:09.380Z,14.44
2017-10-18T00:19:38.589Z,14.40
2017-10-18T00:22:07.827Z,14.34
2017-10-18T00:24:37.033Z,14.35
2017-10-18T00:27:06.289Z,14.36
2017-10-18T00:29:35.613Z,14.36
2017-10-18T00:32:04.853Z,14.34
2017-10-18T00:34:34.060Z,14.26
2017-10-18T00:37:03.460Z,14.23
2017-10-18T00:39:32.690Z,14.23
2017-10-18T00:42:02.710Z,14.21
2017-10-18T00:44:31.921Z,14.24
2017-10-18T00:47:01.950Z,14.24
2017-10-18T00:49:32.048Z,14.25
2017-10-18T00:52:02.034Z,14.20
2017-10-18T00:54:32.764Z,14.15
2017-10-18T00:57:01.973Z,14.16
2017-10-18T00:59:31.188Z,14.14
2017-10-18T01:02:01.209Z,14.14
2017-10-18T01:04:31.242Z,14.14
2017-10-18T01:07:00.461Z,14.16
2017-10-18T01:09:29.690Z,14.15
2017-10-18T01:11:58.923Z,14.14
2017-10-18T01:14:29.038Z,14.08
2017-10-18T01:16:59.019Z,14.00
2017-10-18T01:19:28.224Z,14.03
2017-10-18T01:21:57.500Z,14.04
2017-10-18T01:24:26.807Z,14.03
2017-10-18T01:26:56.044Z,14.08
2017-10-18T01:29:25.999Z,14.09
2017-10-18T01:31:55.232Z,14.12
2017-10-18T01:34:24.439Z,14.13
2017-10-18T01:36:53.789Z,14.14
2017-10-18T01:39:23.015Z,14.17
2017-10-18T01:41:52.332Z,14.22
2017-10-18T01:44:21.617Z,14.22
2017-10-18T01:46:50.815Z,14.23
2017-10-18T01:49:20.048Z,14.21
2017-10-18T01:51:50.019Z,14.14
2017-10-18T01:54:19.253Z,14.13
2017-10-18T01:56:48.456Z,14.06
2017-10-18T01:59:18.452Z,13.99
2017-10-18T02:01:47.665Z,13.90
2017-10-18T02:04:17.659Z,13.71
2017-10-18T02:06:46.869Z,13.66
2017-10-18T02:09:16.088Z,13.55
2017-10-18T02:11:46.059Z,13.56
2017-10-18T02:14:15.283Z,13.50
2017-10-18T02:16:44.484Z,13.49
2017-10-18T02:19:14.475Z,13.43
2017-10-18T02:21:45.189Z,13.43
2017-10-18T02:24:14.415Z,13.39
2017-10-18T02:26:43.620Z,13.41
2017-10-18T02:29:12.848Z,13.39
2017-10-18T02:31:42.099Z,13.38
2017-10-18T02:34:11.308Z,13.30
2017-10-18T02:36:40.533Z,13.27
2017-10-18T02:39:10.548Z,13.17
2017-10-18T02:41:40.517Z,13.15
2017-10-18T02:44:09.792Z,13.18
2017-10-18T02:46:39.007Z,13.22
2017-10-18T02:49:08.377Z,13.25
2017-10-18T02:51:37.767Z,13.26
2017-10-18T02:54:06.985Z,13.34
2017-10-18T02:56:36.232Z,13.37
2017-10-18T02:59:05.471Z,13.41
2017-10-18T03:01:34.726Z,13.49
2017-10-18T03:04:03.943Z,13.55
2017-10-18T03:06:33.932Z,13.61
2017-10-18T03:09:03.129Z,13.67
2017-10-18T03:11:32.368Z,13.60
2017-10-18T03:14:01.573Z,13.60
2017-10-18T03:16:31.013Z,13.64
2017-10-18T03:19:00.214Z,13.57
2017-10-18T03:21:29.432Z,13.54
2017-10-18T03:24:00.262Z,13.58
2017-10-18T03:26:29.587Z,13.60
2017-10-18T03:28:59.615Z,13.61
2017-10-18T03:31:28.848Z,13.66
2017-10-18T03:33:58.095Z,13.67
2017-10-18T03:36:28.124Z,13.63
2017-10-18T03:38:58.158Z,13.63
2017-10-18T03:41:27.363Z,13.66
2017-10-18T03:43:56.600Z,13.65
2017-10-18T03:46:25.815Z,13.67
2017-10-18T03:48:55.053Z,13.66
2017-10-18T03:51:24.258Z,13.63
2017-10-18T03:53:53.799Z,13.64
2017-10-18T03:56:23.007Z,13.64
2017-10-18T03:58:52.217Z,13.65
2017-10-18T04:01:22.307Z,13.69
2017-10-18T04:03:51.636Z,13.72
2017-10-18T04:06:21.643Z,13.76
2017-10-18T04:08:50.871Z,13.77
2017-10-18T04:11:20.688Z,13.75
2017-10-18T04:13:49.897Z,13.75
2017-10-18T04:16:19.123Z,13.63
2017-10-18T04:18:48.330Z,13.57
2017-10-18T04:21:17.564Z,13.56
2017-10-18T04:23:46.771Z,13.55
2017-10-18T04:26:15.972Z,13.57
2017-10-18T04:28:45.206Z,13.58
2017-10-18T04:31:14.413Z,13.60
2017-10-18T04:33:43.630Z,13.62
2017-10-18T04:36:12.859Z,13.58
2017-10-18T04:38:42.100Z,13.58
2017-10-18T04:41:11.446Z,13.56
2017-10-18T04:43:40.687Z,13.55
2017-10-18T04:46:10.184Z,13.49
2017-10-18T04:48:39.507Z,13.47
2017-10-18T04:51:08.714Z,13.45
2017-10-18T04:53:37.954Z,13.44
2017-10-18T04:56:07.167Z,13.44
2017-10-18T04:58:36.415Z,13.43
2017-10-18T05:01:06.528Z,13.39
2017-10-18T05:03:36.552Z,13.26
2017-10-18T05:06:05.778Z,13.01
2017-10-18T05:08:35.009Z,13.02
2017-10-18T05:11:04.259Z,13.04
2017-10-18T05:13:34.219Z,13.03
2017-10-18T05:16:03.447Z,13.05
2017-10-18T05:18:34.163Z,12.98
2017-10-18T05:21:03.401Z,12.98
2017-10-18T05:23:33.466Z,13.00
2017-10-18T05:26:02.747Z,12.96
2017-10-18T05:28:31.986Z,12.96
2017-10-18T05:31:01.217Z,12.96
2017-10-18T05:33:31.363Z,12.95
2017-10-18T05:36:00.591Z,12.95
2017-10-18T05:38:29.954Z,12.92
2017-10-18T05:40:59.196Z,12.87
2017-10-18T05:43:28.432Z,12.84
2017-10-18T05:45:58.415Z,12.85
2017-10-18T05:48:27.666Z,12.85
2017-10-18T05:50:56.889Z,12.73
2017-10-18T05:53:26.099Z,12.69
2017-10-18T05:55:55.412Z,12.54
2017-10-18T05:58:24.620Z,12.38
2017-10-18T06:00:53.846Z,12.30
2017-10-18T06:03:23.066Z,12.30
2017-10-18T06:05:58.119Z,12.30
2017-10-18T06:08:27.324Z,12.25
2017-10-18T06:10:56.567Z,12.14
2017-10-18T06:13:26.551Z,12.19
2017-10-18T06:15:55.847Z,12.24
2017-10-18T06:18:26.071Z,12.33
2017-10-18T06:20:55.319Z,12.33
2017-10-18T06:23:24.566Z,12.29
2017-10-18T06:25:53.791Z,12.32
2017-10-18T06:28:23.988Z,12.30
2017-10-18T06:30:53.475Z,12.27
2017-10-18T06:33:22.726Z,12.26
2017-10-18T06:35:52.692Z,12.26
2017-10-18T06:38:21.934Z,12.23
2017-10-18T06:40:51.895Z,12.23
2017-10-18T06:43:21.140Z,12.20
2017-10-18T06:45:50.347Z,12.21
2017-10-18T06:48:20.335Z,12.28
2017-10-18T06:50:49.583Z,12.34
2017-10-18T06:53:19.535Z,12.32
2017-10-18T06:55:48.783Z,12.32
2017-10-18T06:58:18.042Z,12.31
2017-10-18T07:00:48.811Z,12.34
2017-10-18T07:03:18.025Z,12.33
2017-10-18T07:05:47.265Z,12.29
2017-10-18T07:08:16.480Z,12.31
2017-10-18T07:10:46.476Z,12.24
2017-10-18T07:13:15.701Z,12.22
2017-10-18T07:15:45.862Z,12.28
2017-10-18T07:18:15.061Z,12.28
2017-10-18T07:20:44.303Z,12.32
2017-10-18T07:23:13.531Z,12.39
2017-10-18T07:25:43.552Z,12.42
2017-10-18T07:28:12.784Z,12.53
2017-10-18T07:30:42.018Z,12.62
2017-10-18T07:33:11.236Z,12.69
2017-10-18T07:35:41.226Z,12.75
2017-10-18T07:38:11.959Z,12.85
2017-10-18T07:40:41.170Z,12.95
2017-10-18T07:43:11.167Z,13.07
2017-10-18T07:45:40.381Z,13.15
2017-10-18T07:48:10.364Z,13.23
2017-10-18T07:50:39.732Z,13.32
2017-10-18T07:53:08.983Z,13.39
2017-10-18T07:55:38.939Z,13.33
2017-10-18T07:58:08.287Z,13.22
2017-10-18T08:00:37.755Z,13.24
2017-10-18T08:03:07.847Z,13.32
2017-10-18T08:05:37.815Z,13.27
2017-10-18T08:08:07.038Z,13.09
2017-10-18T08:10:36.306Z,12.92
2017-10-18T08:13:05.538Z,12.82
2017-10-18T08:15:34.776Z,12.87
2017-10-18T08:18:04.179Z,12.92
2017-10-18T08:20:33.427Z,12.87
2017-10-18T08:23:02.651Z,12.80
2017-10-18T08:25:32.071Z,12.80
2017-10-18T08:28:01.284Z,12.90
2017-10-18T08:30:30.527Z,13.05
2017-10-18T08:33:00.584Z,13.15
2017-10-18T08:35:29.819Z,13.18
2017-10-18T08:37:59.156Z,13.23
2017-10-18T08:40:29.186Z,13.22
2017-10-18T08:42:58.437Z,13.11
2017-10-18T08:45:27.677Z,13.16
2017-10-18T08:47:56.935Z,13.26
2017-10-18T08:50:26.139Z,13.36
2017-10-18T08:52:55.366Z,13.54
2017-10-18T08:55:25.349Z,13.73
2017-10-18T08:57:56.093Z,13.91
2017-10-18T09:00:25.294Z,14.06
2017-10-18T09:02:54.807Z,14.22
2017-10-18T09:05:24.788Z,14.38
2017-10-18T09:07:54.060Z,14.55
2017-10-18T09:10:23.275Z,14.65
2017-10-18T09:12:52.531Z,14.70
2017-10-18T09:15:22.520Z,14.76
2017-10-18T09:17:51.786Z,14.72
2017-10-18T09:20:21.048Z,14.69
2017-10-18T09:22:51.034Z,14.81
2017-10-18T09:25:20.268Z,14.91
2017-10-18T09:27:49.479Z,14.98
2017-10-18T09:30:18.690Z,14.96
2017-10-18T09:32:47.919Z,14.94
2017-10-18T09:35:17.170Z,15.02
2017-10-18T09:37:46.391Z,15.13
2017-10-18T09:40:15.597Z,15.27
2017-10-18T09:42:44.844Z,15.34
2017-10-18T09:45:14.060Z,15.36
2017-10-18T09:47:43.292Z,15.33
2017-10-18T09:50:12.508Z,15.45
2017-10-18T09:52:41.840Z,15.54
2017-10-18T09:55:11.048Z,15.62
2017-10-18T09:57:40.300Z,15.76
2017-10-18T10:00:09.536Z,15.86
2017-10-18T10:02:38.776Z,15.94
2017-10-18T10:05:07.992Z,15.99
2017-10-18T10:07:37.275Z,16.08
2017-10-18T10:10:06.589Z,16.26
2017-10-18T10:12:36.047Z,16.41
2017-10-18T10:15:05.283Z,16.49
2017-10-18T10:17:34.499Z,16.44
2017-10-18T10:20:03.934Z,16.43
2017-10-18T10:22:33.150Z,16.51
2017-10-18T10:25:02.385Z,16.65
2017-10-18T10:27:31.599Z,16.75
2017-10-18T10:30:00.812Z,16.80
2017-10-18T10:32:30.797Z,16.77
2017-10-18T10:35:00.006Z,16.85
2017-10-18T10:37:29.271Z,16.94
2017-10-18T10:39:58.484Z,17.02
2017-10-18T10:42:28.514Z,17.13
2017-10-18T10:44:57.745Z,17.20
2017-10-18T10:47:27.752Z,17.40
2017-10-18T10:49:57.901Z,17.50
2017-10-18T10:52:27.132Z,17.51
2017-10-18T10:54:56.354Z,17.60
2017-10-18T10:57:26.359Z,17.70
2017-10-18T10:59:55.587Z,17.93
2017-10-18T11:02:24.800Z,18.19
2017-10-18T11:04:54.022Z,18.33
2017-10-18T11:07:23.348Z,18.48
2017-10-18T11:09:52.581Z,18.59
2017-10-18T11:12:22.112Z,18.63
2017-10-18T11:14:51.349Z,18.62
2017-10-18T11:17:20.556Z,18.63
2017-10-18T11:19:50.792Z,18.60
2017-10-18T11:22:20.895Z,18.57
2017-10-18T11:24:50.280Z,18.59
2017-10-18T11:27:19.535Z,18.61
2017-10-18T11:29:48.843Z,18.58
2017-10-18T11:32:18.088Z,18.61
2017-10-18T11:34:48.919Z,18.67
2017-10-18T11:37:18.415Z,18.67
2017-10-18T11:39:47.627Z,18.76
2017-10-18T11:42:16.876Z,18.73
2017-10-18T11:44:46.111Z,18.79
2017-10-18T11:47:15.502Z,18.84
2017-10-18T11:49:44.742Z,18.85
2017-10-18T11:52:14.744Z,18.87
2017-10-18T11:54:44.736Z,18.89
2017-10-18T11:57:14.035Z,18.91
2017-10-18T11:59:43.304Z,18.88
2017-10-18T12:02:12.542Z,18.90
2017-10-18T12:04:41.729Z,18.90
2017-10-18T12:07:10.964Z,18.98
2017-10-18T12:09:40.944Z,19.03
2017-10-18T12:12:10.358Z,19.08
2017-10-18T12:14:41.132Z,19.20
2017-10-18T12:17:10.377Z,19.39
2017-10-18T12:19:39.672Z,19.49
2017-10-18T12:22:08.899Z,19.60
2017-10-18T12:24:38.132Z,19.68
2017-10-18T12:27:07.436Z,19.77
2017-10-18T12:29:36.669Z,19.74
2017-10-18T12:32:05.945Z,19.77
2017-10-18T12:34:35.172Z,19.88
2017-10-18T12:37:04.463Z,20.00
2017-10-18T12:39:33.692Z,20.10
2017-10-18T12:42:02.953Z,20.19
2017-10-18T12:44:32.448Z,20.36
2017-10-18T12:47:02.356Z,20.51
2017-10-18T12:49:31.591Z,20.65
2017-10-18T12:52:01.096Z,20.72
2017-10-18T12:54:30.300Z,20.74
2017-10-18T12:57:00.300Z,20.72
2017-10-18T12:59:29.495Z,20.69
2017-10-18T13:01:58.738Z,20.75
2017-10-18T13:04:27.975Z,20.77
2017-10-18T13:06:57.208Z,20.69
2017-10-18T13:09:27.200Z,20.69
2017-10-18T13:11:56.415Z,20.78
2017-10-18T13:14:25.835Z,20.82
2017-10-18T13:16:55.072Z,20.88
2017-10-18T13:19:24.299Z,20.93
2017-10-18T13:21:53.560Z,21.02
2017-10-18T13:24:22.773Z,21.10
2017-10-18T13:26:52.005Z,21.15
2017-10-18T13:29:21.251Z,21.23
2017-10-18T13:31:50.478Z,21.31
2017-10-18T13:34:19.724Z,21.38
2017-10-18T13:36:49.712Z,21.37
2017-10-18T13:39:18.948Z,21.39
2017-10-18T13:41:48.164Z,21.40
2017-10-18T13:44:17.417Z,21.40
2017-10-18T13:46:46.929Z,21.45
2017-10-18T13:49:16.897Z,21.49
2017-10-18T13:51:46.128Z,21.51
2017-10-18T13:54:16.939Z,21.51
2017-10-18T13:56:46.243Z,21.52
2017-10-18T13:59:15.477Z,21.58
2017-10-18T14:01:45.456Z,21.57
2017-10-18T14:04:14.679Z,21.60
2017-10-18T14:06:44.651Z,21.62
2017-10-18T14:09:13.906Z,21.63
2017-10-18T14:11:43.886Z,21.66
2017-10-18T14:14:13.111Z,21.68
2017-10-18T14:16:43.112Z,21.65
2017-10-18T14:19:12.333Z,21.68
2017-10-18T14:21:42.342Z,21.69
2017-10-18T14:24:11.556Z,21.71
2017-10-18T14:26:41.545Z,21.78
2017-10-18T14:29:10.736Z,21.77
2017-10-18T14:31:40.242Z,21.72
2017-10-18T14:34:09.464Z,21.71
2017-10-18T14:36:39.641Z,21.66
2017-10-18T14:39:08.865Z,21.66
2017-10-18T14:41:38.890Z,21.61
2017-10-18T14:44:08.190Z,21.56
2017-10-18T14:46:38.231Z,21.59
2017-10-18T14:49:07.464Z,21.61
2017-10-18T14:51:36.876Z,21.64
2017-10-18T14:54:07.624Z,21.64
2017-10-18T14:56:36.847Z,21.68
2017-10-18T14:59:06.847Z,21.66
2017-10-18T15:01:36.840Z,21.64
2017-10-18T15:04:06.073Z,21.59
2017-10-18T15:06:35.299Z,21.60
2017-10-18T15:09:04.538Z,21.63
2017-10-18T15:11:33.759Z,21.65
2017-10-18T15:14:03.775Z,21.65
2017-10-18T15:16:33.852Z,21.65
2017-10-18T15:19:03.108Z,21.62
2017-10-18T15:21:33.211Z,21.59
2017-10-18T15:24:03.187Z,21.51
2017-10-18T15:26:32.445Z,21.36
2017-10-18T15:29:01.706Z,21.31
2017-10-18T15:31:30.937Z,21.30
2017-10-18T15:34:00.191Z,21.20
2017-10-18T15:36:29.416Z,21.19
2017-10-18T15:38:58.619Z,21.17
2017-10-18T15:41:27.879Z,21.15
2017-10-18T15:43:57.119Z,21.13
2017-10-18T15:46:27.190Z,21.03
2017-10-18T15:48:56.460Z,20.99
2017-10-18T15:51:25.770Z,20.95
2017-10-18T15:53:55.064Z,20.88
2017-10-18T15:56:24.303Z,20.79
2017-10-18T15:58:53.572Z,20.66
2017-10-18T16:01:22.805Z,20.43
2017-10-18T16:03:52.034Z,20.20
2017-10-18T16:06:21.282Z,19.99
2017-10-18T16:08:50.517Z,19.85
2017-10-18T16:11:19.747Z,19.64
2017-10-18T16:13:49.099Z,19.58
2017-10-18T16:16:18.339Z,19.53
2017-10-18T16:18:47.556Z,19.46
2017-10-18T16:21:16.768Z,19.41
2017-10-18T16:23:46.007Z,19.24
2017-10-18T16:26:15.984Z,19.06
2017-10-18T16:28:45.217Z,18.94
2017-10-18T16:31:15.211Z,18.83
2017-10-18T16:33:44.452Z,18.78
2017-10-18T16:36:14.490Z,18.72
2017-10-18T16:38:43.724Z,18.67
2017-10-18T16:41:13.000Z,18.59
2017-10-18T16:43:43.171Z,18.38
2017-10-18T16:46:13.132Z,18.28
2017-10-18T16:48:42.389Z,18.15
2017-10-18T16:51:12.381Z,17.93
2017-10-18T16:53:41.599Z,17.85
2017-10-18T16:56:11.625Z,17.78
2017-10-18T16:58:41.931Z,17.81
2017-10-18T17:01:12.099Z,17.62
2017-10-18T17:03:41.297Z,17.53
2017-10-18T17:06:10.541Z,17.36
2017-10-18T17:08:40.559Z,17.21
2017-10-18T17:11:10.691Z,17.12
2017-10-18T17:13:40.771Z,17.07
2017-10-18T17:16:10.123Z,16.97
2017-10-18T17:18:39.377Z,16.96
2017-10-18T17:21:08.605Z,16.97
2017-10-18T17:23:38.632Z,16.93
2017-10-18T17:26:08.611Z,16.89
2017-10-18T17:28:37.879Z,16.80
2017-10-18T17:31:07.098Z,16.65
2017-10-18T17:33:36.403Z,16.57
2017-10-18T17:36:05.804Z,16.49
2017-10-18T17:38:35.023Z,16.53
2017-10-18T17:41:05.146Z,16.46
2017-10-18T17:43:35.151Z,16.43
2017-10-18T17:46:04.432Z,16.50
2017-10-18T17:48:33.665Z,16.49
2017-10-18T17:51:03.698Z,16.41
2017-10-18T17:53:32.983Z,16.44
2017-10-18T17:56:03.011Z,16.39
2017-10-18T17:58:32.224Z,16.37
2017-10-18T18:01:01.561Z,16.37
2017-10-18T18:03:30.784Z,16.42
2017-10-18T18:06:00.772Z,16.46
2017-10-18T18:08:30.038Z,16.45
2017-10-18T18:10:59.384Z,16.49
2017-10-18T18:13:28.636Z,16.52
2017-10-18T18:15:57.968Z,16.60
2017-10-18T18:18:27.239Z,16.73
2017-10-18T18:20:56.435Z,16.83
2017-10-18T18:23:25.723Z,16.88
2017-10-18T18:25:54.935Z,16.93
2017-10-18T18:28:24.187Z,17.01
2017-10-18T18:30:54.535Z,17.08
2017-10-18T18:33:24.538Z,17.11
2017-10-18T18:35:54.519Z,17.11
2017-10-18T18:38:24.087Z,17.10
2017-10-18T18:40:53.338Z,17.08
2017-10-18T18:43:22.548Z,17.08
2017-10-18T18:45:51.896Z,17.10
2017-10-18T18:48:21.151Z,17.08
2017-10-18T18:50:51.143Z,17.06
2017-10-18T18:53:20.344Z,17.01
2017-10-18T18:55:49.601Z,16.99
2017-10-18T18:58:18.839Z,17.00
2017-10-18T19:00:48.173Z,17.00
2017-10-18T19:03:17.383Z,16.97
2017-10-18T19:05:46.617Z,17.00
2017-10-18T19:08:15.880Z,17.01
2017-10-18T19:10:45.205Z,17.01
2017-10-18T19:13:14.478Z,16.97
2017-10-18T19:15:43.703Z,16.96
2017-10-18T19:18:12.956Z,16.96
2017-10-18T19:20:42.944Z,16.94
2017-10-18T19:23:12.217Z,16.91
2017-10-18T19:25:41.617Z,16.89
2017-10-18T19:28:10.866Z,16.88
2017-10-18T19:30:40.089Z,16.84
2017-10-18T19:33:09.356Z,16.81
2017-10-18T19:35:38.576Z,16.83
2017-10-18T19:38:07.803Z,16.82
2017-10-18T19:40:37.056Z,16.81
2017-10-18T19:43:07.036Z,16.75
2017-10-18T19:45:36.408Z,16.74
2017-10-18T19:48:05.634Z,16.71
2017-10-18T19:50:34.908Z,16.67
2017-10-18T19:53:04.143Z,16.65
2017-10-18T19:55:33.380Z,16.62
2017-10-18T19:58:02.611Z,16.61
2017-10-18T20:00:32.010Z,16.60
2017-10-18T20:03:01.228Z,16.60
2017-10-18T20:05:30.479Z,16.58
2017-10-18T20:08:00.481Z,16.59
2017-10-18T20:10:29.820Z,16.56
2017-10-18T20:12:59.063Z,16.55
2017-10-18T20:15:28.306Z,16.53
2017-10-18T20:17:57.713Z,16.52
2017-10-18T20:20:26.915Z,16.48
2017-10-18T20:22:56.160Z,16.45
2017-10-18T20:25:26.155Z,16.43
2017-10-18T20:27:55.591Z,16.43
2017-10-18T20:30:25.645Z,16.38
2017-10-18T20:32:54.889Z,16.40
2017-10-18T20:35:24.115Z,16.40
2017-10-18T20:37:53.362Z,16.39
2017-10-18T20:40:22.607Z,16.36
2017-10-18T20:42:51.943Z,16.35
2017-10-18T20:45:21.175Z,16.30
2017-10-18T20:47:50.421Z,16.29
2017-10-18T20:50:19.709Z,16.26
2017-10-18T20:52:49.721Z,16.25
2017-10-18T20:55:18.983Z,16.23
2017-10-18T20:57:48.322Z,16.26
2017-10-18T21:00:17.686Z,16.24
2017-10-18T21:02:46.931Z,16.25
2017-10-18T21:05:16.186Z,16.22
2017-10-18T21:07:45.380Z,16.22
2017-10-18T21:10:14.599Z,16.20
2017-10-18T21:12:44.604Z,16.25
2017-10-18T21:15:13.816Z,16.21
2017-10-18T21:17:43.869Z,16.20
2017-10-18T21:20:13.119Z,16.20
2017-10-18T21:22:42.499Z,16.24
2017-10-18T21:25:11.728Z,16.21
2017-10-18T21:27:41.727Z,16.17
2017-10-18T21:30:10.954Z,16.16
2017-10-18T21:32:40.940Z,16.20
2017-10-18T21:35:10.160Z,16.14
2017-10-18T21:37:40.153Z,16.11
2017-10-18T21:40:09.375Z,16.12
2017-10-18T21:42:39.372Z,16.09
2017-10-18T21:45:08.625Z,16.09
2017-10-18T21:47:37.824Z,16.06
2017-10-18T21:50:07.067Z,16.01
2017-10-18T21:52:37.043Z,16.01
2017-10-18T21:55:06.268Z,15.96
2017-10-18T21:57:35.486Z,15.94
2017-10-18T22:00:04.958Z,15.94
2017-10-18T22:02:34.183Z,15.91
2017-10-18T22:05:04.216Z,15.88
2017-10-18T22:07:33.436Z,15.86
2017-10-18T22:10:02.651Z,15.84
2017-10-18T22:12:31.876Z,15.86
2017-10-18T22:15:01.080Z,15.84
2017-10-18T22:17:31.097Z,15.81
2017-10-18T22:20:00.590Z,15.73
2017-10-18T22:22:29.827Z,15.75
2017-10-18T22:24:59.053Z,15.74
2017-10-18T22:27:28.284Z,15.77
2017-10-18T22:30:00.535Z,15.73
2017-10-18T22:32:50.624Z,15.70
2017-10-18T22:40:47.602Z,15.57
2017-10-18T22:43:16.814Z,15.50
2017-10-18T22:45:46.076Z,15.41
2017-10-18T22:48:15.273Z,15.39
2017-10-18T22:50:44.485Z,15.33
2017-10-18T22:53:13.726Z,15.32
2017-10-18T22:55:42.928Z,15.25
2017-10-18T22:58:12.912Z,15.21
2017-10-18T23:00:42.199Z,15.21
2017-10-18T23:03:11.619Z,15.20
2017-10-18T23:05:40.900Z,15.21
2017-10-18T23:08:10.248Z,15.21
2017-10-18T23:10:40.252Z,15.24
2017-10-18T23:13:10.961Z,15.24
2017-10-18T23:15:40.189Z,15.24
2017-10-18T23:18:10.189Z,15.21
2017-10-18T23:20:39.475Z,15.23
2017-10-18T23:23:08.701Z,15.25
2017-10-18T23:25:38.689Z,15.24
2017-10-18T23:28:07.904Z,15.22
2017-10-18T23:30:37.253Z,15.18
2017-10-18T23:33:07.321Z,15.20
2017-10-18T23:35:36.567Z,15.19
2017-10-18T23:38:05.798Z,15.18
2017-10-18T23:40:35.031Z,15.17
2017-10-18T23:43:05.020Z,15.17
2017-10-18T23:45:34.281Z,15.18
2017-10-18T23:48:03.528Z,15.21
2017-10-18T23:50:32.729Z,15.23
2017-10-18T23:53:01.957Z,15.19
2017-10-18T23:55:31.204Z,15.18
2017-10-18T23:58:00.414Z,15.18
